createdAt,value
2022-11-29T00:01:37.804Z,25.40
2022-11-29T00:04:09.460Z,28.27
2022-11-29T00:06:37.321Z,26.85
2022-11-29T00:09:09.585Z,33.95
2022-11-29T00:11:57.878Z,32.00
2022-11-29T00:14:27.679Z,22.13
2022-11-29T00:16:59.437Z,33.15
2022-11-29T00:19:27.734Z,30.38
2022-11-29T00:21:55.655Z,26.55
2022-11-29T00:24:23.599Z,26.85
2022-11-29T00:26:51.592Z,25.85
2022-11-29T00:29:19.207Z,22.48
2022-11-29T00:31:47.014Z,26.90
2022-11-29T00:34:15.417Z,24.23
2022-11-29T00:36:48.559Z,17.60
2022-11-29T00:39:16.697Z,25.33
2022-11-29T00:41:45.440Z,20.77
2022-11-29T00:44:19.717Z,25.98
2022-11-29T00:46:48.781Z,18.23
2022-11-29T00:49:16.873Z,18.20
2022-11-29T00:51:44.639Z,23.02
2022-11-29T00:54:12.721Z,22.13
2022-11-29T00:56:40.813Z,21.52
2022-11-29T00:59:08.738Z,21.90
2022-11-29T01:01:36.445Z,20.80
2022-11-29T01:04:04.373Z,20.05
2022-11-29T01:06:32.158Z,20.42
2022-11-29T01:09:00.008Z,17.23
2022-11-29T01:11:28.785Z,16.45
2022-11-29T01:13:59.130Z,13.65
2022-11-29T01:16:28.750Z,14.27
2022-11-29T01:18:56.684Z,13.90
2022-11-29T01:21:25.103Z,13.25
2022-11-29T01:23:53.957Z,17.17
2022-11-29T01:26:25.601Z,13.00
2022-11-29T01:28:55.610Z,10.90
2022-11-29T01:31:29.486Z,16.33
2022-11-29T01:34:00.261Z,13.38
2022-11-29T01:36:28.571Z,13.88
2022-11-29T01:38:58.373Z,13.50
2022-11-29T01:41:29.077Z,14.82
2022-11-29T01:44:11.549Z,18.40
2022-11-29T01:46:44.391Z,14.60
2022-11-29T01:49:24.606Z,17.00
2022-11-29T01:51:54.418Z,15.50
2022-11-29T01:54:22.505Z,13.20
2022-11-29T01:56:52.069Z,13.88
2022-11-29T01:59:23.660Z,16.27
2022-11-29T02:01:52.327Z,20.10
2022-11-29T02:04:20.367Z,16.02
2022-11-29T02:06:48.397Z,23.95
2022-11-29T02:09:21.873Z,19.17
2022-11-29T02:12:05.644Z,22.50
2022-11-29T02:14:57.568Z,20.27
2022-11-29T02:17:39.100Z,17.63
2022-11-29T02:20:43.973Z,14.63
2022-11-29T02:23:36.430Z,15.43
2022-11-29T02:26:34.799Z,14.45
2022-11-29T02:29:21.838Z,17.25
2022-11-29T02:31:58.380Z,14.00
2022-11-29T02:34:36.482Z,18.58
2022-11-29T02:37:21.780Z,17.65
2022-11-29T02:40:14.898Z,23.05
2022-11-29T02:43:12.825Z,20.35
2022-11-29T02:46:23.725Z,18.20
2022-11-29T02:49:30.137Z,21.60
2022-11-29T02:52:06.073Z,17.65
2022-11-29T02:54:48.433Z,19.20
2022-11-29T02:57:51.546Z,18.38
2022-11-29T03:00:21.023Z,18.33
2022-11-29T03:03:00.787Z,17.05
2022-11-29T03:05:49.905Z,18.75
2022-11-29T03:08:29.900Z,17.83
2022-11-29T03:11:03.899Z,17.65
2022-11-29T03:14:04.847Z,16.90
2022-11-29T03:16:45.272Z,23.05
2022-11-29T03:19:31.467Z,19.38
2022-11-29T03:22:10.589Z,20.15
2022-11-29T03:25:01.773Z,19.05
2022-11-29T03:27:42.101Z,17.33
2022-11-29T03:30:14.048Z,16.35
2022-11-29T03:32:56.149Z,15.95
2022-11-29T03:36:05.281Z,18.45
2022-11-29T03:38:55.584Z,18.17
2022-11-29T03:41:30.795Z,15.80
2022-11-29T03:44:15.911Z,22.63
2022-11-29T03:47:01.573Z,12.48
2022-11-29T03:49:35.779Z,17.92
2022-11-29T03:52:19.122Z,19.33
2022-11-29T03:55:24.014Z,17.52
2022-11-29T03:58:13.013Z,17.65
2022-11-29T04:00:51.104Z,19.48
2022-11-29T04:03:21.294Z,18.05
2022-11-29T04:06:04.269Z,15.70
2022-11-29T04:09:06.711Z,18.10
2022-11-29T04:12:05.206Z,15.15
2022-11-29T04:14:38.623Z,16.35
2022-11-29T04:17:14.841Z,14.57
2022-11-29T04:19:54.546Z,17.45
2022-11-29T04:22:57.532Z,16.58
2022-11-29T04:25:28.066Z,15.05
2022-11-29T04:28:23.306Z,15.07
2022-11-29T04:31:13.626Z,13.85
2022-11-29T04:34:07.560Z,16.50
2022-11-29T04:36:47.165Z,16.35
2022-11-29T04:39:38.899Z,13.02
2022-11-29T04:42:27.976Z,15.30
2022-11-29T04:45:04.773Z,18.23
2022-11-29T04:47:55.788Z,16.10
2022-11-29T04:50:55.899Z,13.75
2022-11-29T04:53:54.517Z,14.70
2022-11-29T04:56:45.495Z,12.20
2022-11-29T04:59:50.759Z,16.13
2022-11-29T05:02:43.493Z,13.13
2022-11-29T05:05:40.268Z,12.70
2022-11-29T05:08:32.758Z,11.52
2022-11-29T05:11:26.909Z,13.32
2022-11-29T05:13:57.798Z,12.10
2022-11-29T05:16:48.883Z,11.55
2022-11-29T05:19:34.502Z,14.15
2022-11-29T05:22:16.827Z,7.93
2022-11-29T05:25:05.975Z,15.38
2022-11-29T05:27:51.458Z,17.25
2022-11-29T05:30:24.557Z,12.38
2022-11-29T05:33:18.335Z,12.98
2022-11-29T05:35:53.260Z,14.30
2022-11-29T05:38:50.252Z,11.23
2022-11-29T05:41:51.578Z,13.82
2022-11-29T05:44:37.252Z,11.75
2022-11-29T05:47:08.304Z,12.07
2022-11-29T05:49:44.839Z,15.30
2022-11-29T05:52:21.846Z,13.07
2022-11-29T05:55:17.509Z,12.95
2022-11-29T05:58:03.472Z,13.15
2022-11-29T06:00:57.609Z,13.93
2022-11-29T06:03:36.953Z,12.93
2022-11-29T06:06:18.487Z,10.50
2022-11-29T06:08:55.237Z,13.85
2022-11-29T06:11:54.961Z,16.05
2022-11-29T06:14:44.089Z,14.30
2022-11-29T06:17:25.440Z,12.07
2022-11-29T06:20:22.368Z,13.50
2022-11-29T06:23:10.766Z,15.02
2022-11-29T06:26:07.669Z,12.35
2022-11-29T06:29:11.548Z,11.48
2022-11-29T06:32:22.464Z,11.73
2022-11-29T06:35:15.696Z,11.35
2022-11-29T06:37:49.124Z,11.33
2022-11-29T06:40:17.257Z,10.07
2022-11-29T06:42:45.123Z,12.65
2022-11-29T06:45:14.831Z,12.15
2022-11-29T06:47:46.425Z,13.80
2022-11-29T06:50:49.909Z,13.07
2022-11-29T06:53:35.811Z,8.73
2022-11-29T06:56:26.560Z,14.18
2022-11-29T06:59:23.497Z,11.15
2022-11-29T07:02:22.987Z,15.15
2022-11-29T07:05:08.884Z,9.57
2022-11-29T07:07:37.071Z,12.23
2022-11-29T07:10:10.572Z,20.67
2022-11-29T07:12:41.601Z,10.50
2022-11-29T07:15:16.861Z,9.93
2022-11-29T07:17:53.653Z,11.95
2022-11-29T07:20:48.979Z,17.77
2022-11-29T07:23:34.144Z,11.85
2022-11-29T07:26:21.957Z,11.18
2022-11-29T07:29:10.758Z,14.05
2022-11-29T07:31:57.562Z,11.23
2022-11-29T07:34:40.369Z,11.70
2022-11-29T07:37:19.902Z,12.77
2022-11-29T07:40:03.029Z,10.82
2022-11-29T07:43:08.643Z,13.13
2022-11-29T07:45:36.992Z,17.20
2022-11-29T07:48:05.490Z,10.13
2022-11-29T07:50:35.553Z,15.20
2022-11-29T07:53:03.734Z,15.25
2022-11-29T07:55:34.938Z,13.38
2022-11-29T07:58:02.658Z,11.35
2022-11-29T08:00:30.372Z,18.02
2022-11-29T08:03:01.740Z,11.30
2022-11-29T08:05:29.419Z,9.27
2022-11-29T08:07:57.195Z,11.55
2022-11-29T08:10:25.259Z,11.90
2022-11-29T08:12:53.284Z,10.52
2022-11-29T08:15:22.292Z,14.55
2022-11-29T08:17:50.966Z,12.20
2022-11-29T08:20:18.727Z,10.00
2022-11-29T08:22:53.880Z,14.98
2022-11-29T08:25:21.750Z,10.35
2022-11-29T08:27:49.610Z,13.43
2022-11-29T08:30:22.421Z,10.23
2022-11-29T08:32:51.811Z,11.35
2022-11-29T08:35:22.013Z,9.20
2022-11-29T08:37:50.709Z,13.77
2022-11-29T08:40:18.665Z,14.25
2022-11-29T08:42:47.179Z,11.00
2022-11-29T08:45:14.800Z,10.20
2022-11-29T08:47:43.081Z,10.68
2022-11-29T08:50:16.721Z,12.05
2022-11-29T08:55:35.559Z,9.55
2022-11-29T08:58:06.363Z,11.45
2022-11-29T09:00:34.921Z,23.30
2022-11-29T09:03:22.904Z,11.18
2022-11-29T09:05:50.516Z,11.98
2022-11-29T09:08:18.692Z,14.32
2022-11-29T09:10:47.541Z,13.23
2022-11-29T09:13:15.351Z,8.70
2022-11-29T09:15:43.756Z,11.18
2022-11-29T09:18:11.577Z,12.60
2022-11-29T09:20:43.566Z,14.88
2022-11-29T09:23:13.070Z,20.83
2022-11-29T09:25:41.143Z,13.98
2022-11-29T09:28:08.907Z,11.25
2022-11-29T09:30:38.192Z,13.57
2022-11-29T09:33:05.907Z,12.80
2022-11-29T09:35:57.379Z,13.63
2022-11-29T09:38:25.491Z,11.43
2022-11-29T09:40:55.676Z,11.85
2022-11-29T09:43:51.207Z,14.40
2022-11-29T09:46:34.964Z,12.35
2022-11-29T09:49:14.646Z,14.10
2022-11-29T09:52:16.245Z,16.95
2022-11-29T09:55:02.270Z,9.95
2022-11-29T09:57:30.915Z,11.35
2022-11-29T10:00:05.975Z,10.52
2022-11-29T10:02:45.652Z,10.60
2022-11-29T10:05:21.865Z,10.25
2022-11-29T10:08:06.204Z,10.23
2022-11-29T10:10:41.580Z,12.50
2022-11-29T10:13:29.821Z,12.52
2022-11-29T10:16:12.475Z,11.85
2022-11-29T10:18:55.983Z,11.68
2022-11-29T10:21:32.386Z,9.02
2022-11-29T10:24:07.684Z,9.30
2022-11-29T10:26:35.723Z,9.52
2022-11-29T10:29:03.615Z,9.88
2022-11-29T10:31:44.032Z,10.27
2022-11-29T10:34:15.263Z,8.85
2022-11-29T10:36:47.178Z,9.20
2022-11-29T10:39:47.364Z,13.73
2022-11-29T10:42:44.715Z,8.75
2022-11-29T10:45:15.105Z,12.25
2022-11-29T10:47:46.315Z,10.18
2022-11-29T10:50:21.261Z,8.73
2022-11-29T10:52:48.980Z,11.50
2022-11-29T10:55:18.058Z,10.38
2022-11-29T10:58:09.164Z,11.55
2022-11-29T11:00:51.803Z,11.52
2022-11-29T11:06:15.822Z,14.57
2022-11-29T11:08:47.678Z,13.30
2022-11-29T11:11:25.507Z,15.13
2022-11-29T11:14:02.180Z,14.90
2022-11-29T11:16:35.620Z,15.38
2022-11-29T11:19:40.510Z,15.38
2022-11-29T11:22:21.903Z,16.83
2022-11-29T11:24:58.737Z,16.40
2022-11-29T11:27:37.149Z,15.30
2022-11-29T11:30:06.919Z,15.45
2022-11-29T11:32:34.658Z,16.50
2022-11-29T11:35:02.988Z,24.50
2022-11-29T11:37:33.378Z,17.08
2022-11-29T11:40:26.142Z,20.45
2022-11-29T11:42:54.089Z,17.83
2022-11-29T11:45:27.541Z,16.60
2022-11-29T11:50:32.734Z,17.08
2022-11-29T11:53:07.587Z,18.05
2022-11-29T11:55:43.150Z,19.42
2022-11-29T11:58:13.826Z,17.42
2022-11-29T12:01:04.663Z,20.67
2022-11-29T12:04:17.242Z,17.48
2022-11-29T12:06:44.872Z,16.13
2022-11-29T12:09:25.191Z,19.48
2022-11-29T12:12:13.900Z,19.77
2022-11-29T12:14:56.958Z,17.27
2022-11-29T12:18:02.705Z,17.35
2022-11-29T12:20:44.220Z,15.98
2022-11-29T12:23:11.915Z,15.98
2022-11-29T12:25:47.378Z,16.83
2022-11-29T12:28:20.600Z,15.25
2022-11-29T12:33:58.520Z,16.05
2022-11-29T12:36:46.248Z,13.75
2022-11-29T12:39:38.866Z,10.85
2022-11-29T12:42:24.873Z,12.90
2022-11-29T12:44:57.007Z,14.25
2022-11-29T12:47:37.552Z,12.27
2022-11-29T12:50:11.244Z,15.20
2022-11-29T12:52:51.545Z,13.43
2022-11-29T12:55:28.847Z,16.63
2022-11-29T12:58:05.619Z,14.15
2022-11-29T13:01:01.833Z,20.63
2022-11-29T13:03:41.831Z,15.43
2022-11-29T13:06:29.674Z,14.07
2022-11-29T13:09:38.345Z,12.15
2022-11-29T13:12:36.081Z,14.10
2022-11-29T13:15:11.201Z,15.18
2022-11-29T13:17:47.455Z,16.02
2022-11-29T13:20:37.009Z,15.88
2022-11-29T13:23:39.140Z,14.68
2022-11-29T13:26:13.209Z,15.52
2022-11-29T13:28:43.046Z,17.02
2022-11-29T13:31:20.042Z,13.82
2022-11-29T13:34:21.306Z,17.63
2022-11-29T13:37:03.021Z,14.60
2022-11-29T13:39:37.900Z,14.93
2022-11-29T13:42:45.371Z,17.13
2022-11-29T13:45:35.162Z,15.48
2022-11-29T13:48:27.610Z,14.77
2022-11-29T13:50:57.382Z,16.65
2022-11-29T13:53:31.367Z,16.88
2022-11-29T13:56:01.569Z,13.82
2022-11-29T13:58:29.200Z,13.00
2022-11-29T14:01:07.439Z,15.35
2022-11-29T14:03:38.376Z,15.35
2022-11-29T14:06:18.966Z,14.50
2022-11-29T14:09:17.810Z,13.57
2022-11-29T14:11:42.805Z,14.50
2022-11-29T14:14:35.955Z,14.05
2022-11-29T14:17:06.163Z,15.77
2022-11-29T14:19:36.347Z,20.00
2022-11-29T14:22:07.045Z,12.95
2022-11-29T14:24:38.226Z,13.23
2022-11-29T14:27:14.573Z,12.13
2022-11-29T14:29:58.554Z,12.55
2022-11-29T14:35:10.467Z,9.05
2022-11-29T14:38:13.357Z,14.75
2022-11-29T14:40:41.083Z,14.10
2022-11-29T14:43:31.438Z,13.00
2022-11-29T14:46:17.057Z,14.40
2022-11-29T14:48:57.309Z,14.32
2022-11-29T14:51:27.917Z,13.20
2022-11-29T14:54:19.567Z,14.70
2022-11-29T14:56:47.773Z,12.77
2022-11-29T14:59:52.641Z,13.10
2022-11-29T15:02:20.390Z,18.10
2022-11-29T15:04:52.022Z,14.55
2022-11-29T15:07:26.738Z,17.27
2022-11-29T15:09:57.966Z,16.42
2022-11-29T15:12:28.722Z,13.50
2022-11-29T15:15:03.422Z,14.63
2022-11-29T15:17:56.003Z,14.45
2022-11-29T15:20:42.286Z,14.70
2022-11-29T15:23:17.584Z,13.27
2022-11-29T15:25:53.943Z,17.45
2022-11-29T15:28:27.585Z,14.80
2022-11-29T15:31:07.612Z,13.82
2022-11-29T15:33:39.544Z,14.63
2022-11-29T15:36:17.724Z,15.77
2022-11-29T15:38:46.943Z,18.75
2022-11-29T15:41:41.270Z,14.32
2022-11-29T15:44:22.035Z,14.77
2022-11-29T15:46:49.786Z,20.27
2022-11-29T15:49:27.811Z,16.45
2022-11-29T15:52:03.035Z,16.10
2022-11-29T15:54:36.119Z,22.40
2022-11-29T15:57:11.840Z,14.18
2022-11-29T15:59:47.548Z,17.52
2022-11-29T16:02:32.142Z,17.80
2022-11-29T16:05:26.808Z,19.92
2022-11-29T16:07:57.588Z,18.42
2022-11-29T16:10:35.349Z,15.73
2022-11-29T16:13:34.285Z,16.52
2022-11-29T16:16:11.207Z,15.15
2022-11-29T16:18:41.933Z,16.70
2022-11-29T16:21:26.698Z,15.93
2022-11-29T16:23:55.209Z,17.15
2022-11-29T16:26:36.651Z,15.80
2022-11-29T16:29:05.102Z,14.75
2022-11-29T16:31:37.254Z,14.93
2022-11-29T16:34:15.737Z,18.05
2022-11-29T16:36:43.925Z,21.20
2022-11-29T16:39:24.226Z,19.30
2022-11-29T16:42:07.674Z,17.73
2022-11-29T16:44:41.497Z,17.23
2022-11-29T16:47:18.620Z,20.38
2022-11-29T16:50:06.235Z,17.45
2022-11-29T16:52:34.188Z,20.95
2022-11-29T16:55:02.139Z,21.65
2022-11-29T16:57:33.070Z,18.20
2022-11-29T17:00:00.867Z,20.98
2022-11-29T17:02:30.079Z,18.33
2022-11-29T17:04:59.128Z,19.35
2022-11-29T17:07:31.606Z,18.02
2022-11-29T17:10:00.076Z,18.00
2022-11-29T17:12:27.692Z,15.38
2022-11-29T17:14:55.459Z,16.98
2022-11-29T17:17:23.213Z,18.45
2022-11-29T17:19:53.487Z,18.55
2022-11-29T17:22:21.265Z,16.98
2022-11-29T17:24:49.172Z,17.77
2022-11-29T17:27:17.119Z,20.75
2022-11-29T17:29:45.177Z,18.83
2022-11-29T17:32:13.209Z,16.00
2022-11-29T17:34:40.991Z,20.38
2022-11-29T17:37:08.684Z,16.80
2022-11-29T17:39:36.323Z,15.60
2022-11-29T17:42:03.994Z,14.55
2022-11-29T17:44:34.023Z,17.95
2022-11-29T17:47:01.709Z,14.43
2022-11-29T17:49:29.512Z,20.38
2022-11-29T17:51:57.078Z,20.10
2022-11-29T17:54:24.872Z,19.83
2022-11-29T17:56:52.646Z,17.08
2022-11-29T17:59:20.563Z,16.15
2022-11-29T18:01:48.381Z,19.75
2022-11-29T18:04:16.592Z,18.65
2022-11-29T18:06:45.830Z,17.15
2022-11-29T18:09:13.446Z,21.17
2022-11-29T18:11:48.553Z,15.95
2022-11-29T18:14:23.521Z,18.80
2022-11-29T18:16:51.745Z,18.23
2022-11-29T18:19:22.068Z,19.27
2022-11-29T18:21:50.773Z,17.10
2022-11-29T18:24:18.704Z,17.70
2022-11-29T18:26:46.938Z,20.17
2022-11-29T18:29:14.582Z,15.63
2022-11-29T18:31:44.682Z,20.83
2022-11-29T18:34:13.857Z,14.93
2022-11-29T18:36:47.572Z,21.50
2022-11-29T18:39:20.133Z,16.75
2022-11-29T18:41:49.467Z,23.52
2022-11-29T18:44:20.005Z,18.20
2022-11-29T18:46:48.198Z,17.25
2022-11-29T18:49:17.894Z,22.88
2022-11-29T18:51:46.661Z,25.00
2022-11-29T18:54:18.510Z,25.80
2022-11-29T18:56:46.803Z,20.23
2022-11-29T18:59:17.485Z,24.95
2022-11-29T19:01:47.660Z,22.98
2022-11-29T19:04:18.521Z,29.52
2022-11-29T19:06:46.732Z,28.10
2022-11-29T19:09:16.968Z,26.67
2022-11-29T19:11:44.519Z,23.33
2022-11-29T19:14:13.089Z,28.35
2022-11-29T19:16:44.469Z,30.20
2022-11-29T19:19:13.074Z,29.40
2022-11-29T19:21:40.923Z,25.98
2022-11-29T19:24:15.809Z,23.02
2022-11-29T19:26:45.951Z,30.85
2022-11-29T19:29:14.443Z,22.85
2022-11-29T19:31:42.637Z,29.50
2022-11-29T19:34:10.816Z,34.72
2022-11-29T19:36:44.240Z,22.08
2022-11-29T19:41:46.996Z,24.42
2022-11-29T19:44:15.132Z,19.60
2022-11-29T19:46:46.110Z,29.13
2022-11-29T19:49:14.016Z,24.65
2022-11-29T19:51:41.887Z,22.08
2022-11-29T19:54:10.607Z,21.50
2022-11-29T19:56:38.984Z,19.85
2022-11-29T19:59:08.285Z,24.83
2022-11-29T20:01:41.776Z,25.75
2022-11-29T20:04:11.953Z,20.73
2022-11-29T20:06:41.530Z,23.65
2022-11-29T20:09:09.773Z,19.58
2022-11-29T20:11:38.018Z,25.05
2022-11-29T20:14:07.069Z,23.35
2022-11-29T20:16:36.851Z,20.92
2022-11-29T20:19:12.591Z,23.00
2022-11-29T20:21:48.832Z,23.77
2022-11-29T20:24:17.603Z,24.23
2022-11-29T20:26:48.061Z,22.90
2022-11-29T20:29:16.882Z,21.83
2022-11-29T20:31:50.134Z,21.77
2022-11-29T20:34:21.152Z,22.85
2022-11-29T20:37:16.229Z,25.45
2022-11-29T20:39:49.689Z,28.08
2022-11-29T20:42:25.862Z,18.33
2022-11-29T20:45:02.046Z,25.85
2022-11-29T20:48:02.474Z,19.23
2022-11-29T20:50:32.071Z,20.65
2022-11-29T20:53:23.816Z,29.60
2022-11-29T20:55:51.674Z,28.75
2022-11-29T20:58:19.813Z,21.70
2022-11-29T21:00:50.418Z,21.50
2022-11-29T21:03:19.867Z,21.60
2022-11-29T21:05:48.124Z,23.33
2022-11-29T21:08:17.441Z,21.58
2022-11-29T21:10:45.700Z,21.73
2022-11-29T21:13:14.169Z,25.10
2022-11-29T21:15:42.866Z,24.92
2022-11-29T21:18:24.765Z,23.90
2022-11-29T21:21:27.787Z,24.48
2022-11-29T21:24:23.423Z,23.38
2022-11-29T21:26:51.983Z,24.95
2022-11-29T21:29:22.277Z,27.25
2022-11-29T21:31:52.670Z,21.42
2022-11-29T21:34:21.443Z,17.75
2022-11-29T21:36:55.712Z,21.52
2022-11-29T21:39:28.812Z,18.38
2022-11-29T21:41:56.470Z,23.40
2022-11-29T21:44:23.978Z,18.33
2022-11-29T21:46:51.784Z,16.88
2022-11-29T21:49:19.594Z,20.65
2022-11-29T21:51:47.279Z,26.85
2022-11-29T21:54:15.091Z,21.70
2022-11-29T21:56:42.978Z,21.63
2022-11-29T21:59:10.675Z,21.33
2022-11-29T22:01:38.668Z,17.27
2022-11-29T22:04:06.472Z,23.63
2022-11-29T22:06:34.346Z,22.35
2022-11-29T22:09:02.114Z,21.98
2022-11-29T22:11:35.483Z,21.02
2022-11-29T22:16:42.363Z,21.83
2022-11-29T22:19:12.435Z,18.95
2022-11-29T22:21:41.776Z,22.17
2022-11-29T22:24:10.975Z,21.27
2022-11-29T22:26:38.724Z,20.33
2022-11-29T22:29:07.054Z,19.17
2022-11-29T22:31:36.511Z,24.40
2022-11-29T22:34:04.230Z,18.67
2022-11-29T22:36:33.056Z,20.75
2022-11-29T22:39:01.087Z,22.40
2022-11-29T22:41:28.912Z,18.55
2022-11-29T22:43:56.727Z,19.55
2022-11-29T22:46:26.516Z,21.02
2022-11-29T22:48:57.015Z,20.27
2022-11-29T22:51:33.120Z,21.00
2022-11-29T22:54:03.785Z,25.63
2022-11-29T22:56:37.141Z,18.65
2022-11-29T22:59:05.479Z,18.83
2022-11-29T23:01:35.235Z,19.92
2022-11-29T23:04:06.237Z,25.38
2022-11-29T23:06:44.861Z,21.80
2022-11-29T23:09:17.116Z,24.00
2022-11-29T23:11:46.287Z,22.83
2022-11-29T23:14:13.943Z,25.80
2022-11-29T23:16:42.019Z,18.65
2022-11-29T23:19:10.255Z,16.80
2022-11-29T23:21:40.065Z,22.15
2022-11-29T23:24:08.071Z,25.60
2022-11-29T23:26:40.030Z,26.42
2022-11-29T23:29:10.427Z,23.17
2022-11-29T23:31:38.264Z,22.63
2022-11-29T23:34:06.278Z,28.65
2022-11-29T23:36:34.302Z,23.63
2022-11-29T23:39:09.485Z,26.27
2022-11-29T23:41:37.618Z,24.63
2022-11-29T23:44:06.094Z,20.42
2022-11-29T23:46:35.435Z,19.80
2022-11-29T23:49:03.564Z,25.17
2022-11-29T23:51:31.361Z,24.08
2022-11-29T23:53:59.039Z,24.95
2022-11-29T23:56:27.063Z,22.42
2022-11-29T23:58:54.778Z,22.33
